Legend Of The Seas — C6SL5 — position and weather

sailwx.info

Track history (hours):
 
Tides and Currents Weather Stations Pressure Air Temp Water Temp Dewpoint Dewpoint Depression Visibility Wind Speed Wind Dir Waves Ship Positions

Legend Of The Seas

Operator: Royal Caribbean Cruises Ltd

Last reported at 2020-Mar-09 23:23 UTC. Time now 2020-Apr-06 18:50 UTC.
Position N 18°48' W 081°10'.
Warning: this ship's position is 27 days out of date.

Type: Passenger vessel. MMSI: 311378000.

Date/timePositionNaut miles runAvg speedWind from/ knotsBaromVisibWave heightAir tempDewpointWater temp
2020-Mar-09 23:23N 18°48' W 081°10'  
2020-Mar-07 08:28N 16°42' W 087°29'29 1.0
2020-Mar-06 03:59N 16°22' W 087°08'511.4
2020-Mar-06 03:30N 16°22' W 087°02'2311.6
2020-Mar-06 01:30N 16°14' W 086°39'510.7
2020-Mar-06 01:00N 16°14' W 086°34'7 6.7
2020-Mar-05 23:57N 16°20' W 086°30'0 0.0
2020-Mar-05 22:57N 16°20' W 086°30'0 0.0
2020-Mar-05 22:00N 16°20' W 086°30'0 0.0
2020-Mar-05 19:00N 16°20' W 086°30'0 0.0
2020-Mar-05 16:24N 16°20' W 086°30'0 0.0
2020-Mar-05 14:58N 16°20' W 086°30'1 0.2
2020-Mar-05 12:00N 16°19' W 086°30'7 7.0
2020-Mar-05 11:00N 16°19' W 086°23'  
Track history (hours):
 
Tides and Currents Weather Stations Pressure Air Temp Water Temp Dewpoint Dewpoint Depression Visibility Wind Speed Wind Dir Waves Ship Positions

Legend Of The Seas

Operator: Royal Caribbean Cruises Ltd

Last reported at 2020-Mar-09 23:23 UTC. Time now 2020-Apr-06 18:50 UTC.
Position N 18°48' W 081°10'.
Warning: this ship's position is 27 days out of date.

Type: Passenger vessel. MMSI: 311378000.

Date/timePositionNaut miles runAvg speedWind from/ knotsBaromVisibWave heightAir tempDewpointWater temp
2020-Mar-09 23:23N 18°48' W 081°10'  
2020-Mar-07 08:28N 16°42' W 087°29'29 1.0
2020-Mar-06 03:59N 16°22' W 087°08'511.4
2020-Mar-06 03:30N 16°22' W 087°02'2311.6
2020-Mar-06 01:30N 16°14' W 086°39'510.7
2020-Mar-06 01:00N 16°14' W 086°34'7 6.7
2020-Mar-05 23:57N 16°20' W 086°30'0 0.0
2020-Mar-05 22:57N 16°20' W 086°30'0 0.0
2020-Mar-05 22:00N 16°20' W 086°30'0 0.0
2020-Mar-05 19:00N 16°20' W 086°30'0 0.0
2020-Mar-05 16:24N 16°20' W 086°30'0 0.0
2020-Mar-05 14:58N 16°20' W 086°30'1 0.2
2020-Mar-05 12:00N 16°19' W 086°30'7 7.0
2020-Mar-05 11:00N 16°19' W 086°23'  

Dump ship's entire track history